Latest Weather Observations for Lameroo AWS

IDS60801

Issued at 10:35 am CST Wednesday 23 July 2014 (issued every 30 minutes, with the page automatically refreshed every 10 minutes)

About weather observations | Map of weather stations | Latest weather observations for SA | Other Formats
Station Details ID: 025562 Name: AUSTIN PLAINS Lat: -35.38 Lon: 140.54 Height: 110.08 m
Data from the previous 72 hours. | See also: Recent months at Lameroo AWS
Date/Time
CST
Temp
°C
App
Temp
°C
Dew
Point
Rel
Hum
%
Delta-T
°C
Wind Press
QNH
hPa
Press
MSL
hPa
Rain
since 9 am
mm
Dir
 
Spd
km/h
Gust
km/h
Spd
kts
Gust
kts
23/10:30am 8.3 3.4 4.9 79 1.5 NE 20 28 11 15 1020.4 1020.6 0.0
23/10:00am 7.3 1.4 3.9 79 1.5 NE 24 30 13 16 1020.7 - 0.0
23/09:30am 6.4 1.2 3.6 82 1.2 ENE 20 26 11 14 1020.8 1021.0 0.0
23/09:00am 5.4 0.5 3.9 90 0.6 ENE 19 24 10 13 1021.1 1021.3 0.0
23/08:30am 4.1 -0.8 4.1 100 0.0 ENE 19 22 10 12 1021.0 1021.2 0.0
23/08:00am 3.6 -1.4 3.6 100 0.0 ENE 19 22 10 12 1021.2 - 0.0
23/07:30am 3.2 -1.5 3.2 100 0.0 ENE 17 22 9 12 1021.0 1021.2 0.0
23/07:00am 3.3 -1.4 3.3 100 0.0 ENE 17 20 9 11 1020.8 - 0.0
23/06:30am 3.4 -1.3 3.4 100 0.0 ENE 17 20 9 11 1020.7 1020.9 0.0
23/06:00am 3.4 -1.3 3.4 100 0.0 ENE 17 19 9 10 1020.9 1021.1 0.0
23/05:30am 3.2 -1.1 3.2 100 0.0 ENE 15 17 8 9 1020.9 1021.1 0.0
23/05:00am 3.4 -1.0 2.7 95 0.3 ENE 15 17 8 9 1020.9 - 0.0
23/04:30am 3.6 -0.8 2.6 93 0.4 ENE 15 17 8 9 1021.1 1021.3 0.0
23/04:00am 3.7 -0.7 2.5 92 0.5 ENE 15 19 8 10 1021.2 - 0.0
23/03:30am 3.5 -0.5 2.6 94 0.4 ENE 13 17 7 9 1021.4 1021.6 0.0
23/03:00am 3.5 -0.5 2.6 94 0.4 ENE 13 15 7 8 1021.9 1022.1 0.0
23/02:30am 3.7 -0.7 2.7 93 0.4 ENE 15 19 8 10 1021.8 1022.0 0.0
23/02:00am 3.8 -1.0 2.6 92 0.5 ENE 17 20 9 11 1021.7 - 0.0
23/01:30am 3.6 -0.9 2.4 92 0.5 ENE 15 17 8 9 1021.8 1022.0 0.0
23/01:00am 4.0 -0.8 2.5 90 0.6 ENE 17 19 9 10 1022.1 - 0.0
23/12:30am 4.4 -0.4 2.6 88 0.7 ENE 17 19 9 10 1022.1 1022.3 0.0
23/12:00am 4.2 -0.3 2.2 87 0.8 ENE 15 17 8 9 1022.2 1022.4 0.0
 
Date/Time
CST
Temp
°C
App
Temp
°C
Dew
Point
Rel
Hum
%
Delta-T
°C
Wind Press
QNH
hPa
Press
MSL
hPa
Rain
since 9 am
mm
Dir
 
Spd
km/h
Gust
km/h
Spd
kts
Gust
kts
22/11:30pm 4.0 -0.5 2.0 87 0.8 ENE 15 19 8 10 1022.3 1022.5 0.0
22/11:00pm 4.1 -0.3 2.5 89 0.6 ENE 15 17 8 9 1022.7 - 0.0
22/10:30pm 4.4 0.0 2.9 90 0.6 ENE 15 19 8 10 1022.7 1022.9 0.0
22/10:00pm 4.8 0.5 3.0 88 0.7 ENE 15 17 8 9 1022.9 - 0.0
22/09:30pm 4.9 0.5 2.9 87 0.8 ENE 15 17 8 9 1023.1 1023.3 0.0
22/09:00pm 5.1 0.8 3.0 86 0.9 E 15 17 8 9 1023.0 1023.2 0.0
22/08:30pm 5.0 0.7 3.2 88 0.7 ENE 15 17 8 9 1023.1 1023.3 0.0
22/08:00pm 4.9 0.6 3.2 89 0.7 E 15 15 8 8 1023.3 - 0.0
22/07:30pm 5.2 1.3 3.4 88 0.7 E 13 15 7 8 1023.5 1023.6 0.0
22/07:00pm 5.5 1.6 3.3 86 0.9 E 13 13 7 7 1023.3 - 0.0
22/06:30pm 6.4 2.6 4.1 85 1.0 ENE 13 13 7 7 1023.3 1023.4 0.0
22/06:00pm 7.4 3.8 4.9 84 1.1 E 13 13 7 7 1023.1 1023.3 0.0
22/05:30pm 8.6 4.7 5.5 81 1.4 E 15 15 8 8 1022.6 1022.8 0.0
22/05:00pm 10.9 8.1 6.8 76 2.0 E 11 13 6 7 1022.7 - 0.0
22/04:30pm 12.9 10.1 7.1 68 2.8 ENE 11 13 6 7 1022.6 1022.8 0.0
22/04:00pm 14.1 11.2 6.7 61 3.6 NE 11 13 6 7 1022.6 - 0.0
22/03:30pm 14.4 11.2 6.7 60 3.7 NE 13 15 7 8 1022.5 1022.7 0.0
22/03:00pm 14.5 11.5 6.1 57 4.0 NE 11 15 6 8 1022.5 1022.7 0.0
22/02:30pm 14.6 11.3 6.2 57 4.0 NNE 13 17 7 9 1022.8 1023.0 0.0
22/02:00pm 14.3 11.5 6.9 61 3.6 NE 11 17 6 9 1022.8 - 0.0
22/01:30pm 14.4 11.6 8.4 67 3.0 NE 13 19 7 10 1022.9 1023.1 0.0
22/01:00pm 13.4 10.2 7.0 65 3.1 NE 13 19 7 10 1023.3 - 0.0
22/12:30pm 13.0 10.0 7.5 69 2.7 NE 13 17 7 9 1023.9 1024.0 0.0
22/12:00pm 12.4 8.8 6.9 69 2.6 NE 15 19 8 10 1024.6 1024.8 0.0
22/11:30am 11.8 8.6 6.9 72 2.3 NE 13 20 7 11 1025.0 1025.2 0.0
22/11:00am 10.9 7.3 6.8 76 2.0 NE 15 20 8 11 1025.3 - 0.0
22/10:30am 9.9 6.2 6.3 78 1.7 NNE 15 20 8 11 1025.8 1026.0 0.0
22/10:00am 9.3 6.1 6.7 84 1.2 NNE 13 17 7 9 1025.9 - 0.0
22/09:30am 7.8 4.3 5.4 85 1.1 NE 13 17 7 9 1025.9 1026.1 0.0
22/09:00am 5.8 2.4 5.8 100 0.0 NE 13 15 7 8 1025.8 1026.0 0.2
22/08:30am 3.9 0.5 3.9 100 0.0 NE 11 13 6 7 1025.7 1025.9 0.2
22/08:00am 2.4 -1.7 2.4 100 0.0 ENE 13 13 7 7 1025.5 - 0.2
22/07:30am 1.4 -2.8 1.4 100 0.0 ENE 13 15 7 8 1025.2 1025.4 0.2
22/07:00am 1.5 -3.1 1.5 100 0.0 E 15 15 8 8 1024.8 - 0.2
22/06:30am 1.4 -2.8 1.4 100 0.0 ENE 13 13 7 7 1024.5 1024.7 0.2
22/06:00am 1.4 -2.8 1.4 100 0.0 ENE 13 13 7 7 1024.3 1024.5 0.2
22/05:30am 1.6 -2.6 1.6 100 0.0 ENE 13 13 7 7 1024.1 1024.3 0.2
22/05:00am 1.9 -2.3 1.9 100 0.0 ENE 13 15 7 8 1023.9 - 0.2
22/04:30am 2.1 -2.0 2.1 100 0.0 ENE 13 15 7 8 1023.9 1024.0 0.2
22/04:00am 2.2 -1.9 2.2 100 0.0 ENE 13 15 7 8 1023.8 - 0.2
22/03:30am 2.3 -2.2 2.3 100 0.0 E 15 15 8 8 1023.6 1023.7 0.0
22/03:00am 2.6 -1.8 2.6 100 0.0 E 15 15 8 8 1023.8 1023.9 0.0
22/02:30am 2.5 -1.6 2.5 100 0.0 E 13 15 7 8 1024.0 1024.2 0.0
22/02:00am 2.9 -1.1 2.9 100 0.0 ENE 13 15 7 8 1023.9 - 0.0
22/01:30am 3.7 -0.5 3.7 100 0.0 ENE 15 15 8 8 1023.8 1023.9 0.0
22/01:00am 4.1 0.0 4.1 100 0.0 ENE 15 15 8 8 1023.7 - 0.0
22/12:30am 4.5 0.1 4.5 100 0.0 E 17 17 9 9 1023.6 1023.7 0.0
22/12:00am 5.1 1.0 4.1 93 0.4 ENE 15 17 8 9 1023.8 1023.9 0.0
 
Date/Time
CST
Temp
°C
App
Temp
°C
Dew
Point
Rel
Hum
%
Delta-T
°C
Wind Press
QNH
hPa
Press
MSL
hPa
Rain
since 9 am
mm
Dir
 
Spd
km/h
Gust
km/h
Spd
kts
Gust
kts
21/11:30pm 6.0 2.4 4.8 92 0.5 ENE 13 15 7 8 1023.7 1023.8 0.0
21/11:00pm 6.2 2.6 5.0 92 0.5 ENE 13 15 7 8 1023.7 - 0.0
21/10:30pm 6.5 2.5 5.1 91 0.6 ENE 15 17 8 9 1023.8 1023.9 0.0
21/10:00pm 6.5 2.5 5.1 91 0.6 ENE 15 17 8 9 1023.8 - 0.0
21/09:30pm 6.2 2.6 5.0 92 0.5 E 13 15 7 8 1023.8 1023.9 0.0
21/09:00pm 6.0 2.0 5.0 93 0.4 E 15 15 8 8 1023.8 1023.9 0.0
21/08:30pm 6.0 2.3 4.6 91 0.6 E 13 15 7 8 1023.8 1023.9 0.0
21/08:00pm 7.2 3.8 5.8 91 0.6 ENE 13 15 7 8 1023.6 - 0.0
21/07:30pm 7.5 4.5 6.1 91 0.6 ENE 11 11 6 6 1023.5 1023.6 0.0
21/07:00pm 7.8 4.9 6.3 90 0.7 ENE 11 11 6 6 1023.3 - 0.0
21/06:30pm 8.3 5.4 6.6 89 0.8 ENE 11 11 6 6 1023.0 1023.2 0.0
21/06:00pm 8.9 6.1 7.0 88 0.9 ENE 11 11 6 6 1022.6 1022.8 0.0
21/05:30pm 9.7 7.8 7.6 87 1.0 ENE 7 9 4 5 1022.3 1022.5 0.0
21/05:00pm 10.5 7.9 7.9 84 1.3 E 11 13 6 7 1022.1 - 0.0
21/04:30pm 11.2 9.0 7.7 79 1.7 E 9 13 5 7 1022.1 1022.3 0.0
21/04:00pm 11.9 9.7 7.8 76 2.0 ENE 9 11 5 6 1022.0 - 0.0
21/03:30pm 11.6 9.7 7.7 77 1.9 ENE 7 7 4 4 1022.2 1022.4 0.0
21/03:00pm 11.5 9.1 7.0 74 2.2 NE 9 11 5 6 1022.0 1022.2 0.0
21/02:30pm 12.2 8.5 6.3 67 2.8 NE 15 19 8 10 1022.1 1022.3 0.0
21/02:00pm 12.4 9.9 6.5 67 2.8 NNE 9 13 5 7 1022.3 - 0.0
21/01:30pm 12.1 9.6 6.4 68 2.7 NNE 9 15 5 8 1022.5 1022.7 0.0
21/01:00pm 11.3 8.5 7.0 75 2.1 NE 11 15 6 8 1022.8 - 0.0
21/12:30pm 11.2 8.5 7.3 77 1.9 NE 11 15 6 8 1023.1 1023.3 0.0
21/12:00pm 10.4 7.5 6.4 76 1.9 NE 11 15 6 8 1023.7 1023.8 0.0
21/11:30am 9.4 6.0 5.9 79 1.6 NNE 13 17 7 9 1024.1 1024.3 0.0
21/11:00am 8.7 4.9 6.0 83 1.2 NNE 15 19 8 10 1024.4 - 0.0
21/10:30am 7.8 3.9 5.4 85 1.1 NE 15 19 8 10 1024.6 1024.8 0.0
21/10:00am 7.2 3.3 5.3 88 0.8 NE 15 19 8 10 1024.7 - 0.0
21/09:30am 6.6 2.7 5.4 92 0.5 NE 15 19 8 10 1024.7 1024.9 0.0
21/09:00am 6.1 2.4 6.1 100 0.0 NE 15 19 8 10 1024.8 1025.0 0.0
21/08:30am 5.2 1.6 5.2 100 0.0 ENE 13 15 7 8 1024.7 1024.9 0.0
21/08:00am 4.2 0.5 4.2 100 0.0 ENE 13 15 7 8 1024.6 - 0.0
21/07:30am 3.3 -0.6 3.3 100 0.0 ENE 13 13 7 7 1024.5 1024.7 0.0
21/07:00am 3.2 -0.4 3.2 100 0.0 ENE 11 13 6 7 1024.3 - 0.0
21/06:30am 3.6 0.1 3.6 100 0.0 ENE 11 13 6 7 1024.3 1024.5 0.0
21/06:00am 4.4 1.1 4.4 100 0.0 ENE 11 13 6 7 1024.0 1024.2 0.0
21/05:30am 4.4 0.7 4.4 100 0.0 ENE 13 15 7 8 1023.8 1023.9 0.0
21/05:00am 4.3 0.6 4.3 100 0.0 ENE 13 15 7 8 1023.6 - 0.0
21/04:30am 4.1 0.3 4.1 100 0.0 ENE 13 17 7 9 1023.6 1023.7 0.0
21/04:00am 4.0 0.2 4.0 100 0.0 ENE 13 15 7 8 1023.6 - 0.0
21/03:30am 4.4 0.7 4.4 100 0.0 ENE 13 15 7 8 1023.7 1023.8 0.0
21/03:00am 4.5 0.8 4.5 100 0.0 ENE 13 15 7 8 1023.8 1023.9 0.0
21/02:30am 4.5 0.4 4.1 97 0.2 ENE 15 17 8 9 1024.0 1024.2 0.0
21/02:00am 4.9 1.2 4.2 95 0.3 ENE 13 15 7 8 1024.2 - 0.0
21/01:30am 4.9 1.2 4.2 95 0.3 ENE 13 15 7 8 1024.3 1024.5 0.0
21/01:00am 5.1 1.0 4.5 96 0.3 ENE 15 19 8 10 1024.4 - 0.0
21/12:30am 5.1 1.5 5.1 100 0.0 ENE 13 17 7 9 1024.7 1024.9 0.0
21/12:00am 4.8 1.2 4.8 100 0.0 E 13 15 7 8 1025.1 1025.3 0.0
 
Date/Time
CST
Temp
°C
App
Temp
°C
Dew
Point
Rel
Hum
%
Delta-T
°C
Wind Press
QNH
hPa
Press
MSL
hPa
Rain
since 9 am
mm
Dir
 
Spd
km/h
Gust
km/h
Spd
kts
Gust
kts
20/11:30pm 4.4 0.7 4.4 100 0.0 ENE 13 15 7 8 1025.3 1025.5 0.0
20/11:00pm 4.3 1.3 4.3 100 0.0 ENE 9 11 5 6 1025.5 - 0.0
20/10:30pm 4.3 1.0 4.3 100 0.0 ENE 11 11 6 6 1025.5 1025.7 0.0
20/10:00pm 4.0 0.6 4.0 100 0.0 ENE 11 13 6 7 1025.8 - 0.0
20/09:30pm 4.5 1.5 3.9 96 0.3 ENE 9 11 5 6 1025.7 1025.9 0.0
20/09:00pm 5.1 1.4 4.4 95 0.3 E 13 15 7 8 1025.3 1025.5 0.0
20/08:30pm 5.3 2.0 4.3 93 0.4 E 11 13 6 7 1025.5 1025.7 0.0
20/08:00pm 6.0 3.1 4.8 92 0.5 E 9 9 5 5 1025.7 - 0.0
20/07:30pm 6.4 3.6 5.0 91 0.6 E 9 11 5 6 1025.7 1025.9 0.0
20/07:00pm 6.6 3.4 5.2 91 0.6 E 11 11 6 6 1025.7 - 0.0
20/06:30pm 6.9 4.1 5.1 88 0.8 E 9 11 5 6 1025.5 1025.7 0.0
20/06:00pm 7.6 5.3 5.7 88 0.9 E 7 9 4 5 1025.4 1025.6 0.0
20/05:30pm 8.0 4.6 6.1 88 0.9 E 13 15 7 8 1025.1 1025.3 0.0
20/05:00pm 8.4 5.4 6.2 86 1.0 E 11 13 6 7 1025.0 - 0.0
20/04:30pm 9.2 6.7 6.6 84 1.2 ENE 9 9 5 5 1025.2 1025.4 0.0
20/04:00pm 9.6 6.7 6.5 81 1.5 ENE 11 15 6 8 1025.1 - 0.0
20/03:30pm 10.2 7.2 6.0 75 1.9 NE 11 15 6 8 1025.3 1025.5 0.0
20/03:00pm 10.5 7.1 5.9 73 2.1 NE 13 19 7 10 1025.6 1025.8 0.0
20/02:30pm 11.1 7.4 6.5 73 2.2 NE 15 22 8 12 1025.5 1025.7 0.0
20/02:00pm 10.0 6.2 5.6 74 2.0 NNE 15 19 8 10 1025.7 - 0.0
20/01:30pm 10.6 6.6 6.6 76 1.9 NE 17 22 9 12 1026.0 1026.2 0.0
20/01:00pm 9.8 5.7 6.0 77 1.8 NNE 17 20 9 11 1026.5 - 0.0
20/12:30pm 10.0 5.9 6.0 76 1.8 NNE 17 20 9 11 1027.0 1027.2 0.0
20/12:00pm 10.1 6.2 5.5 73 2.1 NNE 15 20 8 11 1027.6 1027.8 0.0
20/11:30am 10.6 7.0 6.6 76 1.9 NNE 15 20 8 11 1028.0 1028.2 0.0
20/11:00am 9.5 6.1 6.0 79 1.6 NNE 13 17 7 9 1028.5 - 0.0

Other Formats:

Comma delimited format used in spreadsheet applications
http://www.bom.gov.au/fwo/IDS60801/IDS60801.94690.axf

JavaScript Object Notation format (JSON) in row-major order
http://www.bom.gov.au/fwo/IDS60801/IDS60801.94690.json